Time;durP1;ratioP1;P1;durP2;ratioP2;P2;SDS_P1;SDS_P2;PMS_P1;PMS_P2;Temp;Humidity;BMP_temperature;BMP_pressure;BME280_temperature;BME280_humidity;BME280_pressure;Samples;Min_cycle;Max_cycle;Signal;HPM_P1;HPM_P2
2021/04/28 00:01:46;;;;;;;8.73;4.45;;;9.10;42.70;;;;;;5032777;28;20041;-80
2021/04/28 00:04:12;;;;;;;10.55;4.78;;;8.90;43.10;;;;;;5039760;28;20034;-79
2021/04/28 00:06:38;;;;;;;11.10;4.75;;;8.90;43.50;;;;;;5032151;28;20144;-80
2021/04/28 00:09:05;;;;;;;12.55;5.30;;;8.90;43.50;;;;;;5035122;28;20088;-78
2021/04/28 00:11:31;;;;;;;10.70;4.20;;;8.80;44.50;;;;;;5036071;28;20045;-78
2021/04/28 00:13:57;;;;;;;10.25;5.38;;;8.80;44.20;;;;;;5049554;28;20072;-79
2021/04/28 00:16:22;;;;;;;16.02;4.82;;;8.80;44.30;;;;;;5051482;28;20050;-79
2021/04/28 00:18:49;;;;;;;15.30;4.97;;;8.70;44.50;;;;;;5042360;28;20041;-79
2021/04/28 00:21:15;;;;;;;13.90;4.72;;;8.70;45.10;;;;;;5041033;28;20038;-78
2021/04/28 00:23:41;;;;;;;11.30;5.03;;;8.70;45.00;;;;;;5030068;28;20056;-79
2021/04/28 00:26:08;;;;;;;10.85;4.45;;;8.60;45.30;;;;;;5039041;28;20030;-79
2021/04/28 00:28:34;;;;;;;11.98;4.65;;;8.60;45.30;;;;;;5025977;28;20219;-77
2021/04/28 00:31:00;;;;;;;13.00;4.97;;;8.60;44.70;;;;;;5027887;28;20058;-81
2021/04/28 00:33:25;;;;;;;11.95;5.03;;;8.60;45.60;;;;;;5049295;28;20058;-78
2021/04/28 00:35:51;;;;;;;9.57;4.60;;;8.50;46.00;;;;;;5030966;28;20041;-80
2021/04/28 00:38:16;;;;;;;11.85;4.95;;;8.50;46.40;;;;;;5024977;28;20030;-80
2021/04/28 00:40:42;;;;;;;14.77;5.00;;;8.50;46.30;;;;;;5024307;28;20049;-77
2021/04/28 00:43:08;;;;;;;12.13;4.97;;;8.50;46.40;;;;;;5022999;28;20041;-80
2021/04/28 00:45:34;;;;;;;15.27;4.85;;;8.40;47.20;;;;;;5034017;28;20030;-80
2021/04/28 00:48:03;;;;;;;17.42;5.20;;;8.40;47.50;;;;;;5032909;28;20049;-80
2021/04/28 00:50:33;;;;;;;9.95;5.25;;;8.40;47.50;;;;;;5027432;28;20037;-80
2021/04/28 00:53:00;;;;;;;13.95;4.68;;;8.40;48.10;;;;;;5031407;28;20041;-80
2021/04/28 00:55:26;;;;;;;12.48;4.72;;;8.30;47.80;;;;;;5030127;28;20041;-80
2021/04/28 00:57:52;;;;;;;10.13;5.05;;;8.30;48.20;;;;;;5027949;28;20041;-80
2021/04/28 01:00:19;;;;;;;24.55;5.25;;;8.30;49.90;;;;;;5030616;28;20044;-80
2021/04/28 01:02:45;;;;;;;12.77;5.28;;;8.30;49.40;;;;;;5030171;28;20042;-80
2021/04/28 01:05:12;;;;;;;13.02;5.60;;;8.20;50.50;;;;;;5036328;28;20048;-80
2021/04/28 01:07:39;;;;;;;10.90;5.60;;;8.20;49.40;;;;;;5034015;28;20042;-80
2021/04/28 01:10:07;;;;;;;13.55;5.00;;;8.20;49.60;;;;;;5030216;28;20042;-79
2021/04/28 01:12:35;;;;;;;10.23;5.32;;;8.20;49.30;;;;;;5031595;28;20056;-81
2021/04/28 01:15:01;;;;;;;13.00;4.93;;;8.10;49.80;;;;;;5032070;28;20095;-79
2021/04/28 01:17:28;;;;;;;17.25;5.07;;;8.10;50.40;;;;;;5024968;28;20037;-79
2021/04/28 01:19:53;;;;;;;16.02;5.65;;;8.10;50.60;;;;;;5034312;28;20030;-79
2021/04/28 01:22:20;;;;;;;10.65;5.30;;;8.10;50.70;;;;;;5033271;28;20100;-79
2021/04/28 01:24:46;;;;;;;14.80;5.15;;;8.10;51.10;;;;;;5032817;28;20737;-79
2021/04/28 01:27:16;;;;;;;14.43;5.35;;;8.00;50.90;;;;;;5033154;28;20042;-79
2021/04/28 01:29:44;;;;;;;11.63;5.20;;;8.10;51.90;;;;;;5029836;28;20041;-80
2021/04/28 01:32:13;;;;;;;10.48;4.55;;;8.00;51.70;;;;;;5032236;28;20046;-79
2021/04/28 01:34:41;;;;;;;19.75;5.05;;;8.00;52.60;;;;;;5031731;28;21490;-80
2021/04/28 01:37:07;;;;;;;14.65;4.75;;;8.00;52.20;;;;;;5027727;28;20052;-80
2021/04/28 01:39:33;;;;;;;10.77;5.63;;;8.00;51.40;;;;;;5031624;28;20044;-79
2021/04/28 01:41:59;;;;;;;13.10;5.30;;;8.00;52.30;;;;;;5040559;28;20053;-79
2021/04/28 01:44:25;;;;;;;12.35;5.00;;;8.00;52.00;;;;;;5039571;28;20034;-79
2021/04/28 01:46:54;;;;;;;12.00;5.30;;;8.00;52.60;;;;;;5038469;28;20121;-78
2021/04/28 01:49:21;;;;;;;9.52;4.78;;;7.90;52.40;;;;;;5043357;28;20034;-78
2021/04/28 01:51:47;;;;;;;11.52;4.72;;;7.90;52.70;;;;;;5038018;28;20025;-78
2021/04/28 01:54:18;;;;;;;15.45;4.75;;;7.90;53.30;;;;;;5036539;28;20045;-78
2021/04/28 01:56:49;;;;;;;13.88;5.20;;;7.90;53.90;;;;;;5035133;28;20041;-79
2021/04/28 01:59:16;;;;;;;13.27;5.88;;;7.90;53.60;;;;;;5043849;28;20032;-80
2021/04/28 02:01:45;;;;;;;11.40;5.00;;;7.80;53.30;;;;;;5031478;28;20041;-78
2021/04/28 02:04:10;;;;;;;11.80;5.30;;;7.80;53.90;;;;;;5033237;28;20117;-80
2021/04/28 02:06:40;;;;;;;18.67;5.43;;;7.80;54.10;;;;;;5025480;28;20511;-78
2021/04/28 02:09:06;;;;;;;9.98;4.78;;;7.70;54.70;;;;;;5024349;28;20034;-78
2021/04/28 02:11:32;;;;;;;13.90;5.40;;;7.70;55.30;;;;;;5026117;28;20045;-79
2021/04/28 02:13:59;;;;;;;11.02;5.82;;;7.70;54.80;;;;;;5043332;28;20108;-79
2021/04/28 02:16:27;;;;;;;9.50;4.95;;;7.70;55.90;;;;;;5028708;28;20037;-78
2021/04/28 02:18:52;;;;;;;15.50;5.55;;;7.70;55.40;;;;;;5028288;28;20153;-78
2021/04/28 02:21:19;;;;;;;9.50;4.97;;;7.70;55.00;;;;;;5026433;28;20505;-78
2021/04/28 02:23:46;;;;;;;17.20;5.13;;;7.70;55.40;;;;;;5019730;28;20041;-77
2021/04/28 02:26:12;;;;;;;13.93;5.85;;;7.60;55.20;;;;;;5023724;28;20100;-78
2021/04/28 02:28:38;;;;;;;12.18;6.15;;;7.60;55.30;;;;;;5031792;28;20475;-80
2021/04/28 02:31:04;;;;;;;17.83;4.85;;;7.60;56.60;;;;;;5025376;28;20033;-80
2021/04/28 02:33:30;;;;;;;19.48;5.85;;;7.60;56.60;;;;;;5024344;28;20037;-79
2021/04/28 02:35:57;;;;;;;12.95;5.38;;;7.50;57.20;;;;;;5030378;28;20047;-79
2021/04/28 02:38:54;;;;;;;16.42;5.40;;;7.50;57.40;;;;;;5032413;28;20076;-79
2021/04/28 02:41:22;;;;;;;17.83;5.10;;;7.50;58.10;;;;;;5032322;28;20200;-79
2021/04/28 02:43:48;;;;;;;10.70;5.50;;;7.50;57.80;;;;;;5032386;28;20051;-79
2021/04/28 02:46:15;;;;;;;11.27;5.70;;;7.40;57.70;;;;;;5031932;28;20085;-78
2021/04/28 02:48:46;;;;;;;9.43;4.50;;;7.40;58.90;;;;;;5028095;28;20049;-78
2021/04/28 02:51:12;;;;;;;12.27;5.40;;;7.50;59.00;;;;;;5022483;28;20038;-79
2021/04/28 02:53:44;;;;;;;15.18;5.20;;;7.40;59.50;;;;;;5016504;28;20412;-77
2021/04/28 02:56:11;;;;;;;24.27;5.78;;;7.40;59.80;;;;;;5020434;28;20048;-80
2021/04/28 02:58:38;;;;;;;11.68;5.18;;;7.40;59.80;;;;;;5021353;28;20029;-78
2021/04/28 03:01:05;;;;;;;12.25;5.50;;;7.30;59.80;;;;;;5020756;28;20273;-80
2021/04/28 03:03:32;;;;;;;13.30;5.20;;;7.30;60.30;;;;;;5019833;28;20405;-80
2021/04/28 03:05:59;;;;;;;11.40;5.57;;;7.30;61.20;;;;;;5020142;28;20087;-78
2021/04/28 03:08:25;;;;;;;13.70;5.05;;;7.20;60.60;;;;;;5024781;28;20120;-79
2021/04/28 03:10:51;;;;;;;12.98;5.57;;;7.20;60.90;;;;;;5022876;28;20175;-77
2021/04/28 03:13:18;;;;;;;11.98;5.65;;;7.30;60.90;;;;;;5022628;28;20116;-78
2021/04/28 03:15:49;;;;;;;15.45;5.13;;;7.20;60.50;;;;;;5023185;28;20033;-80
2021/04/28 03:18:16;;;;;;;19.23;5.78;;;7.20;60.70;;;;;;5026188;28;20117;-78
2021/04/28 03:20:46;;;;;;;12.35;5.63;;;7.10;60.70;;;;;;5028706;28;20030;-78
2021/04/28 03:23:12;;;;;;;17.30;5.63;;;7.10;61.40;;;;;;5027997;28;20436;-78
2021/04/28 03:25:42;;;;;;;15.90;5.55;;;7.10;61.10;;;;;;5029356;28;20030;-78
2021/04/28 03:28:08;;;;;;;15.23;4.90;;;7.10;62.10;;;;;;5029065;28;20049;-78
2021/04/28 03:30:34;;;;;;;15.32;5.55;;;7.10;62.00;;;;;;5025298;28;20123;-78
2021/04/28 03:33:00;;;;;;;13.13;5.70;;;7.10;62.10;;;;;;5039091;28;20416;-78
2021/04/28 03:35:27;;;;;;;14.50;5.43;;;7.10;62.30;;;;;;5035243;28;20037;-78
2021/04/28 03:37:52;;;;;;;12.07;5.13;;;7.10;62.10;;;;;;5028698;28;20068;-79
2021/04/28 03:40:18;;;;;;;13.20;5.03;;;7.10;62.30;;;;;;5029321;28;20504;-79
2021/04/28 03:42:44;;;;;;;14.98;5.60;;;7.00;62.90;;;;;;5032471;28;20056;-78
2021/04/28 03:45:10;;;;;;;19.38;6.10;;;7.00;62.80;;;;;;5029001;28;20037;-79
2021/04/28 03:47:36;;;;;;;15.98;5.47;;;7.00;62.50;;;;;;5035573;28;20065;-77
2021/04/28 03:50:03;;;;;;;17.33;5.90;;;7.00;63.50;;;;;;5032984;28;20053;-78
2021/04/28 03:52:28;;;;;;;20.30;6.15;;;6.90;63.10;;;;;;5034753;28;20053;-77
2021/04/28 03:54:54;;;;;;;12.07;6.05;;;6.90;63.90;;;;;;5032322;28;20034;-78
2021/04/28 03:57:20;;;;;;;12.75;5.22;;;6.90;63.80;;;;;;5031406;28;20049;-78
2021/04/28 03:59:45;;;;;;;16.42;6.00;;;6.90;64.60;;;;;;5026420;28;20041;-78
2021/04/28 04:02:11;;;;;;;23.13;6.10;;;6.90;64.30;;;;;;5030665;28;20393;-78
2021/04/28 04:04:37;;;;;;;10.13;5.35;;;6.90;65.00;;;;;;5032252;28;20041;-78
2021/04/28 04:07:03;;;;;;;17.45;6.25;;;6.80;64.30;;;;;;5029065;28;20045;-79
2021/04/28 04:09:28;;;;;;;14.52;5.88;;;6.90;64.80;;;;;;5023904;28;20053;-78
2021/04/28 04:11:54;;;;;;;11.93;6.20;;;6.90;65.00;;;;;;5019442;28;20062;-78
2021/04/28 04:14:20;;;;;;;19.92;5.95;;;6.80;65.10;;;;;;5026603;28;20048;-79
2021/04/28 04:16:46;;;;;;;17.73;5.45;;;6.80;65.20;;;;;;5029148;28;20033;-78
2021/04/28 04:19:12;;;;;;;14.23;5.97;;;6.90;65.10;;;;;;5019434;28;20037;-78
2021/04/28 04:21:39;;;;;;;14.25;6.22;;;6.80;65.30;;;;;;5024000;28;20040;-79
2021/04/28 04:24:05;;;;;;;13.38;6.25;;;6.80;65.20;;;;;;5020203;28;20045;-79
2021/04/28 04:26:36;;;;;;;15.25;5.47;;;6.80;65.20;;;;;;5025004;28;20025;-80
2021/04/28 04:29:03;;;;;;;15.23;6.35;;;6.80;65.70;;;;;;5020875;28;20168;-80
2021/04/28 04:31:29;;;;;;;22.02;6.35;;;6.80;66.20;;;;;;5022496;28;20052;-80
2021/04/28 04:33:54;;;;;;;13.50;6.00;;;6.90;66.10;;;;;;5022748;28;20113;-78
2021/04/28 04:36:20;;;;;;;12.93;6.32;;;6.90;66.50;;;;;;5036174;28;20171;-81
2021/04/28 04:38:46;;;;;;;12.15;5.40;;;6.90;66.00;;;;;;5052785;28;20049;-79
2021/04/28 04:41:12;;;;;;;24.02;6.35;;;6.90;66.30;;;;;;5026203;28;20040;-79
2021/04/28 04:43:37;;;;;;;20.60;7.22;;;7.00;66.60;;;;;;5034188;28;20045;-78
2021/04/28 04:46:03;;;;;;;11.40;6.25;;;7.00;66.90;;;;;;5015871;28;20068;-77
2021/04/28 04:48:30;;;;;;;22.75;6.47;;;7.00;66.40;;;;;;5035389;28;20509;-77
2021/04/28 04:50:55;;;;;;;12.30;6.47;;;7.00;66.60;;;;;;5034011;28;20048;-78
2021/04/28 04:53:21;;;;;;;15.70;6.40;;;7.00;66.90;;;;;;5041869;28;20045;-79
2021/04/28 04:55:47;;;;;;;19.00;6.25;;;7.10;67.20;;;;;;5036885;28;20037;-79
2021/04/28 04:58:12;;;;;;;19.77;5.70;;;7.10;66.80;;;;;;5038868;28;20033;-81
2021/04/28 05:00:38;;;;;;;15.13;6.10;;;7.10;66.60;;;;;;5035282;28;20029;-79
2021/04/28 05:03:04;;;;;;;18.05;7.63;;;7.10;66.90;;;;;;5035690;28;20040;-83
2021/04/28 05:05:29;;;;;;;15.95;6.88;;;7.20;67.30;;;;;;5032930;28;20761;-79
2021/04/28 05:07:55;;;;;;;20.73;6.22;;;7.20;67.50;;;;;;5031104;28;20045;-80
2021/04/28 05:10:21;;;;;;;12.00;5.50;;;7.20;67.90;;;;;;5030516;28;20041;-79
2021/04/28 05:12:47;;;;;;;18.40;6.35;;;7.30;67.90;;;;;;5023437;28;20121;-80
2021/04/28 05:15:14;;;;;;;18.25;7.22;;;7.30;67.50;;;;;;5031281;28;20042;-80
2021/04/28 05:17:40;;;;;;;19.35;7.45;;;7.40;68.20;;;;;;5027939;28;20105;-79
2021/04/28 05:20:07;;;;;;;21.40;9.18;;;7.40;66.90;;;;;;5030683;28;20064;-79
2021/04/28 05:22:33;;;;;;;24.52;7.97;;;7.60;67.10;;;;;;5028501;28;20057;-80
2021/04/28 05:24:58;;;;;;;27.15;7.32;;;7.70;65.60;;;;;;5028494;28;20096;-78
2021/04/28 05:27:26;;;;;;;27.05;8.20;;;7.80;65.60;;;;;;5028250;28;20133;-79
2021/04/28 05:29:55;;;;;;;23.67;7.68;;;7.80;65.50;;;;;;5028758;28;20045;-78
2021/04/28 05:32:20;;;;;;;25.05;7.93;;;8.00;63.50;;;;;;5026618;28;20224;-80
2021/04/28 05:34:46;;;;;;;25.13;7.35;;;8.10;63.10;;;;;;5026827;28;20108;-81
2021/04/28 05:37:13;;;;;;;19.52;8.18;;;8.20;63.00;;;;;;5022862;28;20755;-80
2021/04/28 05:39:41;;;;;;;16.98;7.90;;;8.40;62.80;;;;;;5018716;28;20048;-78
2021/04/28 05:42:07;;;;;;;19.40;7.32;;;8.50;62.40;;;;;;5013459;28;20095;-78
2021/04/28 05:44:33;;;;;;;26.92;8.13;;;8.70;61.40;;;;;;5026134;28;20491;-79
2021/04/28 05:47:00;;;;;;;13.95;6.88;;;8.80;58.80;;;;;;5028397;28;20364;-79
2021/04/28 05:49:25;;;;;;;17.55;6.75;;;9.00;59.70;;;;;;5031047;28;20038;-79
2021/04/28 05:51:51;;;;;;;25.52;7.10;;;9.20;60.50;;;;;;5026016;28;20036;-80
2021/04/28 05:54:16;;;;;;;20.65;7.88;;;9.30;61.00;;;;;;5030612;28;20056;-79
2021/04/28 05:56:42;;;;;;;29.02;7.53;;;9.50;60.10;;;;;;5028740;28;20098;-79
2021/04/28 05:59:08;;;;;;;16.75;8.38;;;9.70;59.50;;;;;;5023360;28;20048;-78
2021/04/28 06:01:34;;;;;;;21.67;8.98;;;9.90;57.90;;;;;;5029575;28;20092;-79
2021/04/28 06:04:00;;;;;;;24.58;8.63;;;10.00;54.70;;;;;;5028708;28;20115;-78
2021/04/28 06:06:26;;;;;;;27.02;7.93;;;10.20;52.70;;;;;;5028293;28;20500;-79
2021/04/28 06:08:52;;;;;;;28.67;9.30;;;10.40;51.00;;;;;;5025087;28;20022;-79
2021/04/28 06:11:18;;;;;;;28.58;8.82;;;10.50;49.10;;;;;;5031891;28;20034;-80
2021/04/28 06:13:44;;;;;;;27.77;9.52;;;10.70;48.10;;;;;;5024940;28;20055;-78
2021/04/28 06:16:11;;;;;;;35.38;9.60;;;10.90;47.80;;;;;;5018277;28;20037;-78
2021/04/28 06:18:37;;;;;;;31.10;9.52;;;11.00;46.90;;;;;;5028804;28;20136;-79
2021/04/28 06:21:04;;;;;;;21.15;8.52;;;11.00;47.00;;;;;;5025646;28;20034;-79
2021/04/28 06:23:30;;;;;;;24.73;8.90;;;11.20;46.20;;;;;;5028305;28;20045;-79
2021/04/28 06:25:55;;;;;;;24.73;10.07;;;11.40;45.30;;;;;;5040108;28;20037;-79
2021/04/28 06:28:21;;;;;;;24.90;9.70;;;11.50;43.70;;;;;;5026287;28;20048;-78
2021/04/28 06:30:46;;;;;;;22.60;9.13;;;11.50;43.50;;;;;;5038672;28;20423;-78
2021/04/28 06:33:12;;;;;;;25.73;9.60;;;11.80;44.40;;;;;;5023001;28;20529;-77
2021/04/28 06:35:38;;;;;;;21.35;9.68;;;11.90;43.90;;;;;;5027826;28;20041;-79
2021/04/28 06:38:03;;;;;;;26.50;9.60;;;12.10;44.00;;;;;;5029277;28;20037;-79
2021/04/28 06:40:29;;;;;;;31.08;9.95;;;12.10;42.90;;;;;;5043328;28;20063;-79
2021/04/28 06:42:54;;;;;;;24.95;9.30;;;12.20;42.20;;;;;;5024970;28;20049;-80
2021/04/28 06:45:20;;;;;;;32.30;8.82;;;12.50;41.30;;;;;;5029352;28;20041;-79
2021/04/28 06:47:46;;;;;;;33.05;9.20;;;13.10;40.60;;;;;;5031566;28;20067;-80
2021/04/28 06:50:11;;;;;;;23.90;9.93;;;13.60;38.20;;;;;;5025923;28;20041;-78
2021/04/28 06:52:40;;;;;;;41.35;10.65;;;14.30;34.70;;;;;;5024564;28;20059;-80
2021/04/28 06:55:06;;;;;;;26.23;9.20;;;14.80;32.90;;;;;;5030990;28;21079;-80
2021/04/28 06:57:32;;;;;;;24.50;9.10;;;15.20;31.60;;;;;;5032004;28;20052;-80
2021/04/28 06:59:57;;;;;;;27.05;10.02;;;15.60;29.80;;;;;;5028679;28;20366;-78
2021/04/28 07:02:23;;;;;;;24.05;10.50;;;15.50;29.20;;;;;;5027633;28;20049;-79
2021/04/28 07:04:48;;;;;;;26.40;9.40;;;15.80;29.30;;;;;;5029478;28;20137;-80
2021/04/28 07:07:14;;;;;;;21.73;9.68;;;15.70;27.60;;;;;;5030654;28;20079;-80
2021/04/28 07:09:39;;;;;;;25.42;10.57;;;16.00;27.60;;;;;;5025654;28;20049;-79
2021/04/28 07:12:05;;;;;;;32.28;10.25;;;16.00;27.20;;;;;;5033082;28;20068;-80
2021/04/28 07:14:31;;;;;;;28.35;9.45;;;16.20;27.60;;;;;;5027941;28;20091;-80
2021/04/28 07:16:56;;;;;;;23.55;10.02;;;16.30;27.60;;;;;;5031205;28;20049;-80
2021/04/28 07:19:22;;;;;;;26.60;9.30;;;16.30;26.50;;;;;;5030151;28;20034;-80
2021/04/28 07:21:48;;;;;;;28.80;10.48;;;16.40;26.40;;;;;;5028283;28;20034;-80
2021/04/28 07:24:13;;;;;;;26.77;10.38;;;16.70;26.00;;;;;;5021438;28;20136;-78
2021/04/28 07:26:39;;;;;;;20.90;9.93;;;16.90;25.90;;;;;;5025041;28;20038;-79
2021/04/28 07:29:05;;;;;;;25.30;10.48;;;17.10;25.50;;;;;;5030874;28;20034;-80
2021/04/28 07:31:30;;;;;;;28.85;10.20;;;17.00;24.80;;;;;;5025118;28;20037;-80
2021/04/28 07:33:58;;;;;;;23.52;9.45;;;17.10;24.50;;;;;;5028748;28;20443;-79
2021/04/28 07:36:23;;;;;;;23.98;10.07;;;17.30;23.70;;;;;;5027552;28;20060;-80
2021/04/28 07:38:49;;;;;;;27.23;11.20;;;17.40;24.60;;;;;;5025810;28;20673;-80
2021/04/28 07:41:15;;;;;;;21.52;9.85;;;17.30;24.40;;;;;;5025247;28;20093;-80
2021/04/28 07:43:41;;;;;;;24.70;11.07;;;17.40;24.10;;;;;;5023420;28;20088;-78
2021/04/28 07:46:06;;;;;;;32.42;10.82;;;17.60;23.90;;;;;;5025857;28;20037;-78
2021/04/28 07:48:32;;;;;;;24.95;11.20;;;17.50;24.30;;;;;;5027386;28;20037;-79
2021/04/28 07:51:00;;;;;;;25.60;10.30;;;17.80;24.10;;;;;;5027316;28;20045;-80
2021/04/28 07:53:26;;;;;;;24.13;11.30;;;18.00;22.80;;;;;;5028989;28;20064;-82
2021/04/28 07:55:52;;;;;;;29.60;11.10;;;17.80;22.30;;;;;;5035174;28;20030;-80
2021/04/28 07:58:18;;;;;;;31.77;11.10;;;17.70;22.60;;;;;;5025151;28;20040;-80
2021/04/28 08:00:44;;;;;;;26.60;11.43;;;17.60;23.00;;;;;;5030610;28;20026;-80
2021/04/28 08:03:10;;;;;;;31.48;10.95;;;17.70;23.50;;;;;;5031090;28;20056;-79
2021/04/28 08:05:38;;;;;;;17.85;10.38;;;17.50;23.40;;;;;;5028018;28;20042;-79
2021/04/28 08:08:04;;;;;;;28.75;10.93;;;17.80;23.70;;;;;;5033968;28;20101;-79
2021/04/28 08:10:30;;;;;;;31.60;12.38;;;17.90;23.70;;;;;;5031923;28;20037;-79
2021/04/28 08:12:56;;;;;;;31.58;11.98;;;17.80;23.20;;;;;;5035017;28;20068;-77
2021/04/28 08:15:22;;;;;;;29.42;10.77;;;17.90;24.00;;;;;;5033234;28;20033;-78
2021/04/28 08:17:48;;;;;;;23.17;11.05;;;17.90;23.20;;;;;;5031327;28;20038;-79
2021/04/28 08:20:15;;;;;;;26.45;10.52;;;18.10;23.80;;;;;;5029838;28;20044;-77
2021/04/28 08:22:42;;;;;;;31.17;10.38;;;18.20;23.90;;;;;;5025136;28;20592;-79
2021/04/28 08:25:11;;;;;;;32.30;11.43;;;18.40;23.90;;;;;;5031126;28;20089;-78
2021/04/28 08:27:37;;;;;;;31.15;11.15;;;18.30;23.30;;;;;;5024297;28;20026;-79
2021/04/28 08:30:11;;;;;;;23.42;11.35;;;18.40;23.30;;;;;;5030461;28;20052;-78
2021/04/28 08:32:37;;;;;;;22.98;12.38;;;18.70;22.90;;;;;;5027975;28;20064;-78
2021/04/28 08:35:05;;;;;;;23.45;10.05;;;18.50;22.30;;;;;;5029513;28;20473;-78
2021/04/28 08:37:30;;;;;;;36.15;11.13;;;18.70;23.10;;;;;;5030155;28;20044;-78
2021/04/28 08:39:56;;;;;;;24.63;11.35;;;18.90;23.40;;;;;;5027266;28;20892;-78
2021/04/28 08:42:21;;;;;;;31.10;11.45;;;19.20;22.50;;;;;;5035413;28;20037;-79
2021/04/28 08:44:47;;;;;;;30.65;12.40;;;19.00;22.20;;;;;;5031450;28;20103;-79
2021/04/28 08:47:14;;;;;;;34.50;12.48;;;19.20;21.80;;;;;;5030893;28;20048;-79
2021/04/28 08:49:40;;;;;;;25.77;11.68;;;19.40;22.20;;;;;;5032083;28;20056;-79
2021/04/28 08:52:07;;;;;;;46.42;12.55;;;20.00;21.70;;;;;;5027857;28;20029;-78
2021/04/28 08:54:33;;;;;;;36.67;13.05;;;20.60;20.80;;;;;;5032377;28;20702;-77
2021/04/28 08:56:59;;;;;;;28.58;12.30;;;20.80;19.70;;;;;;5032470;28;20556;-78
2021/04/28 08:59:25;;;;;;;25.77;11.13;;;21.10;19.60;;;;;;5027544;28;20310;-79
2021/04/28 09:01:50;;;;;;;22.92;11.88;;;21.20;19.40;;;;;;5028560;28;20033;-78
2021/04/28 09:04:23;;;;;;;30.63;11.80;;;21.30;18.90;;;;;;5034058;28;20098;-77
2021/04/28 09:06:50;;;;;;;27.90;12.75;;;21.50;18.60;;;;;;5028561;28;20067;-77
2021/04/28 09:09:17;;;;;;;30.70;13.30;;;21.50;18.20;;;;;;5024421;28;20034;-78
2021/04/28 09:11:51;;;;;;;29.05;12.10;;;22.00;18.50;;;;;;5029540;28;20026;-78
2021/04/28 09:14:23;;;;;;;30.63;12.37;;;22.10;17.90;;;;;;5029652;28;20041;-79
2021/04/28 09:16:52;;;;;;;25.95;13.32;;;23.10;16.60;;;;;;5033894;28;20853;-81
2021/04/28 09:19:40;;;;;;;26.98;11.88;;;23.20;15.30;;;;;;5044970;28;20400;-78
2021/04/28 09:22:11;;;;;;;26.02;12.38;;;23.90;15.10;;;;;;5027776;28;20033;-78
2021/04/28 09:24:50;;;;;;;23.75;11.95;;;24.60;15.00;;;;;;5032975;28;20060;-79
2021/04/28 09:27:31;;;;;;;24.38;11.23;;;25.10;13.90;;;;;;5027670;28;20575;-79
2021/04/28 09:29:57;;;;;;;20.30;12.07;;;25.40;12.60;;;;;;5028194;28;20650;-79
2021/04/28 09:32:36;;;;;;;23.58;12.25;;;25.00;13.20;;;;;;5031220;28;20033;-79
2021/04/28 09:35:15;;;;;;;25.60;13.50;;;25.50;12.90;;;;;;5030793;28;20060;-79
2021/04/28 09:37:55;;;;;;;24.38;12.20;;;25.90;11.70;;;;;;5031657;28;20167;-78
2021/04/28 09:40:38;;;;;;;25.20;13.13;;;26.70;10.80;;;;;;5029720;28;20133;-78
2021/04/28 09:43:04;;;;;;;30.13;12.15;;;26.70;11.20;;;;;;5026342;28;20127;-79
2021/04/28 09:45:51;;;;;;;35.65;12.35;;;26.80;10.40;;;;;;5033751;28;20501;-80
2021/04/28 09:48:39;;;;;;;33.00;12.25;;;27.10;10.50;;;;;;5029782;28;20037;-77
2021/04/28 09:51:06;;;;;;;31.63;12.52;;;27.50;10.40;;;;;;5026511;28;20041;-79
2021/04/28 09:53:32;;;;;;;22.33;12.25;;;27.30;9.60;;;;;;5024779;28;20095;-78
2021/04/28 09:55:58;;;;;;;23.17;11.48;;;27.30;9.60;;;;;;5027408;28;20034;-77
2021/04/28 09:58:48;;;;;;;35.85;13.75;;;27.10;9.50;;;;;;5028935;28;20135;-78
2021/04/28 10:01:15;;;;;;;29.85;13.55;;;27.40;9.00;;;;;;5026455;28;20205;-79
2021/04/28 10:03:46;;;;;;;26.08;12.32;;;27.40;9.20;;;;;;5028270;28;20041;-78
2021/04/28 10:06:12;;;;;;;25.98;11.90;;;27.50;8.10;;;;;;5021599;28;20084;-80
2021/04/28 10:08:37;;;;;;;26.80;12.90;;;27.20;8.50;;;;;;5031350;28;20034;-78
2021/04/28 10:11:03;;;;;;;25.48;12.40;;;27.30;8.80;;;;;;5029034;28;20049;-77
2021/04/28 10:13:29;;;;;;;23.13;11.63;;;26.40;9.00;;;;;;5025673;28;20495;-79
2021/04/28 10:15:54;;;;;;;26.13;11.65;;;27.80;8.70;;;;;;5023404;28;20045;-77
2021/04/28 10:18:22;;;;;;;25.55;11.50;;;27.80;7.20;;;;;;5040376;28;20033;-77
2021/04/28 10:20:50;;;;;;;22.88;11.80;;;27.90;7.10;;;;;;5031291;28;20034;-78
2021/04/28 10:23:17;;;;;;;21.95;11.32;;;28.00;6.80;;;;;;5025792;28;20625;-78
2021/04/28 10:25:48;;;;;;;27.98;12.85;;;27.90;7.10;;;;;;5026615;28;20084;-77
2021/04/28 10:28:15;;;;;;;26.92;10.90;;;27.60;6.70;;;;;;5028516;28;20116;-80
2021/04/28 10:30:43;;;;;;;21.60;10.80;;;26.90;7.80;;;;;;5023735;28;20567;-79
2021/04/28 10:33:15;;;;;;;21.15;11.98;;;26.30;8.40;;;;;;5025406;28;20091;-82
2021/04/28 10:35:41;;;;;;;29.20;11.77;;;27.30;7.30;;;;;;5023594;28;20472;-79
2021/04/28 10:38:07;;;;;;;26.73;11.85;;;27.60;6.60;;;;;;5030256;28;20038;-79
2021/04/28 10:40:35;;;;;;;17.48;9.55;;;28.30;6.50;;;;;;5025509;28;20540;-80
2021/04/28 10:43:08;;;;;;;20.83;9.98;;;29.20;5.90;;;;;;5023581;28;20189;-77
2021/04/28 10:45:38;;;;;;;20.10;10.85;;;28.50;4.60;;;;;;5028218;28;20056;-80
2021/04/28 10:48:07;;;;;;;17.98;10.23;;;28.10;4.60;;;;;;5029522;28;20056;-79
2021/04/28 10:50:48;;;;;;;15.52;9.18;;;28.10;4.90;;;;;;5034919;28;20041;-78
2021/04/28 10:53:20;;;;;;;23.50;9.18;;;29.30;4.90;;;;;;5034960;28;20044;-78
2021/04/28 10:55:55;;;;;;;20.55;9.63;;;29.20;3.50;;;;;;5034680;28;20049;-80
2021/04/28 10:58:27;;;;;;;22.40;8.77;;;29.40;3.60;;;;;;5034583;28;20132;-81
2021/04/28 11:01:07;;;;;;;17.52;9.10;;;29.20;2.90;;;;;;5029995;28;20034;-79
2021/04/28 11:03:40;;;;;;;18.27;8.88;;;29.70;2.80;;;;;;5027894;28;20049;-78
2021/04/28 11:08:44;;;;;;;21.08;9.60;;;29.30;1.90;;;;;;5033615;28;20048;-80
2021/04/28 11:14:09;;;;;;;20.30;8.75;;;29.20;3.10;;;;;;5030480;28;20136;-79
2021/04/28 11:16:50;;;;;;;18.23;8.15;;;30.40;2.50;;;;;;5027439;28;20052;-79
2021/04/28 11:19:23;;;;;;;14.68;8.27;;;29.90;2.80;;;;;;5033655;28;20036;-79
2021/04/28 11:22:07;;;;;;;13.77;7.80;;;30.10;1.30;;;;;;5028725;28;20041;-80
2021/04/28 11:25:10;;;;;;;16.50;8.23;;;29.40;2.60;;;;;;5029159;28;20256;-80
2021/04/28 11:27:55;;;;;;;20.60;7.90;;;29.40;2.00;;;;;;5028051;28;20033;-80
2021/04/28 11:30:24;;;;;;;12.00;7.75;;;29.20;2.10;;;;;;5030518;28;20422;-80
2021/04/28 11:33:10;;;;;;;19.45;8.38;;;29.40;2.60;;;;;;5027627;28;20029;-80
2021/04/28 11:35:39;;;;;;;14.45;7.40;;;28.30;3.00;;;;;;5026482;28;20037;-79
2021/04/28 11:38:11;;;;;;;22.92;7.75;;;27.60;3.10;;;;;;5020888;28;20060;-79
2021/04/28 11:41:06;;;;;;;16.02;8.35;;;26.80;4.10;;;;;;5020153;28;20030;-79
2021/04/28 11:43:35;;;;;;;;;;;26.50;4.00;;;;;;5022928;28;20072;-79
2021/04/28 11:46:05;;;;;;;21.67;7.75;;;27.50;4.40;;;;;;5028832;28;19971;-79
2021/04/28 11:48:32;;;;;;;18.58;8.30;;;28.30;2.80;;;;;;5031824;28;20057;-79
2021/04/28 11:51:00;;;;;;;13.95;7.40;;;28.10;3.20;;;;;;5033159;28;20083;-79
2021/04/28 11:53:27;;;;;;;12.82;8.00;;;28.20;3.70;;;;;;5026437;28;20037;-80
2021/04/28 11:55:52;;;;;;;19.70;8.48;;;28.90;3.20;;;;;;5032309;28;20095;-79
2021/04/28 11:58:32;;;;;;;15.07;7.85;;;29.30;3.40;;;;;;5035066;28;20049;-80
2021/04/28 12:01:13;;;;;;;15.65;8.82;;;30.20;2.40;;;;;;5029379;28;20033;-79
2021/04/28 12:03:54;;;;;;;19.52;9.07;;;30.30;2.50;;;;;;5036897;28;20160;-79
2021/04/28 12:06:29;;;;;;;16.40;9.60;;;28.70;3.10;;;;;;5030721;28;20033;-80
2021/04/28 12:09:07;;;;;;;17.10;9.13;;;27.90;3.70;;;;;;5033363;28;20033;-81
2021/04/28 12:11:34;;;;;;;15.13;8.02;;;29.00;3.20;;;;;;5035884;28;20048;-80
2021/04/28 12:14:00;;;;;;;14.93;7.47;;;29.50;3.60;;;;;;5033847;28;20037;-80
2021/04/28 12:16:25;;;;;;;11.10;6.88;;;29.40;2.40;;;;;;5030349;28;20118;-81
2021/04/28 12:19:05;;;;;;;13.38;7.55;;;30.20;2.50;;;;;;5046587;28;20033;-79
2021/04/28 12:21:31;;;;;;;15.32;8.73;;;29.60;2.20;;;;;;5028266;28;20117;-78
2021/04/28 12:23:59;;;;;;;15.68;8.40;;;28.30;3.30;;;;;;5028686;28;20058;-78
2021/04/28 12:26:24;;;;;;;13.55;7.25;;;29.50;2.70;;;;;;5027796;28;20687;-79
2021/04/28 12:28:50;;;;;;;12.52;7.22;;;29.60;2.00;;;;;;5025101;28;20041;-80
2021/04/28 12:31:16;;;;;;;17.58;7.53;;;30.60;2.40;;;;;;5029312;28;20037;-80
2021/04/28 12:33:42;;;;;;;15.55;8.27;;;30.20;2.40;;;;;;5025570;28;20060;-79
2021/04/28 12:36:08;;;;;;;13.90;7.53;;;29.70;2.40;;;;;;5027511;28;20049;-80
2021/04/28 12:38:38;;;;;;;25.10;9.25;;;29.80;1.90;;;;;;5030249;28;20145;-79
2021/04/28 12:41:07;;;;;;;16.83;8.13;;;29.80;2.20;;;;;;5027263;28;20574;-81
2021/04/28 12:43:38;;;;;;;24.60;9.38;;;29.70;2.60;;;;;;5025577;28;20049;-82
2021/04/28 12:46:10;;;;;;;19.88;8.85;;;29.50;2.70;;;;;;5026288;28;20044;-82
2021/04/28 12:48:59;;;;;;;12.30;7.30;;;28.40;3.00;;;;;;5021471;28;20037;-83
2021/04/28 12:51:25;;;;;;;15.30;8.02;;;28.70;3.70;;;;;;5033688;28;20029;-83